Flight Track Log - Related Links

Times and Time Zones

All times are in EDT time to prevent confusion due to time zone crossing. See the RPA3392 flight status page for this flight to view local times or setup timezone preferences in your user account.

Time Position Orientation Groundspeed Altitude Reporting Facility
EDT Latitude Longitude Course Direction KTS MPH feet Rate Location/Type
Sun 10:42:12 PM 38.8833 -77.0500 81° East 160 184 1,300  Level Potomac TRACON
Sun 10:44:00 PM 39.0333 -76.5167 67° East  Level FlightAware Approximate
Sun 10:44:36 PM 38.9864 -77.1619 320° Northwest 208 239 5,500  Level Washington Center
Sun 10:45:00 PM 39.1042 -76.3458 61° Northeast  Level FlightAware Approximate
Sun 10:45:37 PM 39.0581 -77.1047 32° Northeast 228 262 7,900  Level Washington Center
Sun 10:46:00 PM 39.1544 -76.1733 83° East  Level FlightAware Approximate
Sun 10:46:38 PM 39.0700 -76.9925 82° East 229 264 9,100  Level Washington Center
Sun 10:47:00 PM 39.1732 -75.9809 81° East  Level FlightAware Approximate
Sun 10:47:36 PM 39.0817 -76.8806 82° East 268 308 11,400  Level Washington Center
Sun 10:48:37 PM 39.0953 -76.7578 82° East 305 351 13,700 2,132 Climbing Washington Center
Sun 10:49:37 PM 39.1089 -76.6267 82° East 345 397 15,700 1,950 Climbing Washington Center
Sun 10:50:37 PM 39.1225 -76.4878 83° East 372 428 17,600 1,884 Climbing Washington Center
Sun 10:51:38 PM 39.1383 -76.3436 82° East 394 453 19,500 1,916 Climbing Washington Center
Sun 10:52:36 PM 39.1536 -76.1964 82° East 412 474 21,400 1,881 Climbing Washington Center
Sun 10:53:36 PM 39.1753 -76.0281 81° East 425 489 23,200 1,574 Climbing Washington Center
Sun 10:54:38 PM 39.2069 -75.8756 75° East 430 495 24,600 1,422 Climbing Washington Center
Sun 10:56:29 PM 39.3703 -75.6506 47° Northeast 461 531 27,300 1,404 Climbing New York Center
Sun 10:57:29 PM 39.4628 -75.5333 44° Northeast 468 539 28,600 1,271 Climbing New York Center
Sun 10:58:27 PM 39.5553 -75.4131 45° Northeast 468 539 29,800 1,373 Climbing New York Center
Sun 10:59:27 PM 39.6472 -75.2950 45° Northeast 463 533 31,300 1,339 Climbing New York Center
Sun 11:00:28 PM 39.7311 -75.1736 48° Northeast 463 533 32,500 1,140 Climbing New York Center
Sun 11:01:28 PM 39.8064 -75.0592 49° Northeast 463 533 33,600 1,050 Climbing New York Center
Sun 11:02:28 PM 39.8919 -74.9347 48° Northeast 458 527 34,600 694 Climbing New York Center
Sun 11:03:29 PM 39.9753 -74.8206 46° Northeast 453 521 35,000 198 Climbing New York Center
Sun 11:04:29 PM 40.0672 -74.6903 47° Northeast 448 516 35,000 -305 Level New York Center
Sun 11:05:27 PM 40.1394 -74.5856 48° Northeast 448 516 34,400 -555 Descending New York Center
Sun 11:06:28 PM 40.2286 -74.4656 46° Northeast 448 516 33,900 -590 Descending New York Center
Sun 11:07:29 PM 40.3353 -74.3869 29° Northeast 440 506 33,200 -446 Descending New York Center
Sun 11:08:29 PM 40.4442 -74.2997 31° Northeast 446 513 33,000 -763 Descending New York Center
Sun 11:09:27 PM 40.5350 -74.1897 43° Northeast 446 513 31,700 -2,533 Descending New York Center
Sun 11:11:29 PM 40.7189 -73.9569 44° Northeast 435 501 25,400 -2,538 Descending Boston Center
Sun 11:12:29 PM 40.8058 -73.8439 45° Northeast 435 501 24,000 -700 Descending Boston Center
Sun 11:13:29 PM 40.8967 -73.7361 42° Northeast 430 495 24,000 -200 Level Boston Center
Sun 11:14:29 PM 40.9811 -73.6442 39° Northeast 430 495 23,600 -500 Descending Boston Center
Sun 11:15:29 PM 41.0983 -73.5694 26° Northeast 425 489 23,000 -450 Descending Boston Center
Sun 11:16:29 PM 41.2033 -73.4939 28° Northeast 420 483 22,700 -450 Descending Boston Center
Sun 11:17:29 PM 41.2853 -73.4372 27° Northeast 420 483 22,100 -850 Descending Boston Center
Sun 11:18:29 PM 41.4108 -73.3533 27° Northeast 414 476 21,000 -1,050 Descending Boston Center
Sun 11:19:29 PM 41.5256 -73.3633 356° North 379 436 20,000 -900 Descending Boston Center
Sun 11:20:29 PM 41.6169 -73.4008 343° North 371 427 19,200 -1,182 Descending Boston Center
Sun 11:21:41 PM 41.7292 -73.4386 346° North 371 427 17,400 -1,727 Descending Boston Center
Sun 11:22:41 PM 41.8433 -73.4794 345° North 358 412 15,400 -1,750 Descending Boston Center
Sun 11:23:41 PM 41.9347 -73.5117 345° North 352 405 13,900 -1,600 Descending Boston Center
Sun 11:24:41 PM 42.0261 -73.5442 345° North 340 391 12,200 -1,450 Descending Boston Center
Sun 11:25:41 PM 42.1092 -73.5764 344° North 335 386 11,000 -700 Descending Boston Center
Sun 11:26:41 PM 42.1964 -73.6114 343° North 335 386 10,800 -850 Descending Boston Center
Sun 11:27:41 PM 42.2750 -73.6522 339° North 321 369 9,300 -1,500 Descending Boston Center
Sun 11:28:41 PM 42.3328 -73.7039 327° Northwest 297 342 7,800 -1,450 Descending Boston Center
Sun 11:29:41 PM 42.3886 -73.7611 323° Northwest 247 284 6,400 -1,388 Descending Boston Center
Sun 11:30:42 PM 42.4342 -73.7903 335° Northwest 213 245 5,000 -1,350 Descending Boston Center
Sun 11:31:41 PM 42.5008 -73.7947 357° North 202 232 3,700 -756 Descending Boston Center
Sun 11:32:41 PM 42.5486 -73.7956 359° North 202 232 3,500 -450 Descending Boston Center
Sun 11:33:41 PM 42.6028 -73.8025 355° North 197 227 2,800 -700 Descending Boston Center

Login

Don't have an account? Register now (free) for customized features, flight alerts, and more!